Time;durP1;ratioP1;P1;durP2;ratioP2;P2;SDS_P1;SDS_P2;PMS_P1;PMS_P2;Temp;Humidity;BMP_temperature;BMP_pressure;BME280_temperature;BME280_humidity;BME280_pressure;Samples;Min_cycle;Max_cycle;Signal;HPM_P1;HPM_P2
2021/10/15 00:00:30;;;;;;;12.63;1.77;;;28.10;19.70;;;;;;5048527;28;20118;-61
2021/10/15 00:03:00;;;;;;;10.70;1.52;;;28.10;19.60;;;;;;5048277;28;20073;-62
2021/10/15 00:05:28;;;;;;;9.32;1.40;;;28.00;19.60;;;;;;5048751;28;20429;-62
2021/10/15 00:07:55;;;;;;;7.15;1.10;;;28.00;19.70;;;;;;5047998;28;20070;-62
2021/10/15 00:10:22;;;;;;;10.75;1.65;;;27.90;19.20;;;;;;5048549;28;20119;-65
2021/10/15 00:12:48;;;;;;;9.32;1.58;;;27.90;19.50;;;;;;5048433;28;20088;-62
2021/10/15 00:15:15;;;;;;;11.18;1.90;;;27.70;19.80;;;;;;5048821;28;20151;-61
2021/10/15 00:17:41;;;;;;;10.20;1.33;;;27.70;19.70;;;;;;5032163;28;20084;-62
2021/10/15 00:20:09;;;;;;;9.07;1.60;;;27.70;19.40;;;;;;5048500;28;20181;-65
2021/10/15 00:22:35;;;;;;;7.70;1.13;;;27.60;19.60;;;;;;5048204;28;20453;-63
2021/10/15 00:25:02;;;;;;;7.70;1.08;;;27.40;19.70;;;;;;5047771;28;20455;-63
2021/10/15 00:27:28;;;;;;;15.43;1.33;;;27.30;19.90;;;;;;5048563;28;20073;-62
2021/10/15 00:29:54;;;;;;;7.43;1.67;;;27.30;19.80;;;;;;5049195;28;20115;-63
2021/10/15 00:32:21;;;;;;;10.88;1.25;;;27.30;19.70;;;;;;5048122;28;20082;-63
2021/10/15 00:34:47;;;;;;;10.35;1.27;;;27.10;20.30;;;;;;5050063;28;20524;-67
2021/10/15 00:37:17;;;;;;;8.23;1.08;;;27.10;20.00;;;;;;5052060;28;20104;-63
2021/10/15 00:39:43;;;;;;;8.90;1.15;;;27.00;20.10;;;;;;5036681;28;20546;-62
2021/10/15 00:42:10;;;;;;;4.53;1.38;;;26.90;21.10;;;;;;5052448;28;20113;-64
2021/10/15 00:44:39;;;;;;;8.10;1.70;;;26.90;21.70;;;;;;5050929;28;20093;-66
2021/10/15 00:47:06;;;;;;;12.02;1.50;;;26.70;20.90;;;;;;5051528;28;20106;-66
2021/10/15 00:49:32;;;;;;;6.82;0.98;;;26.60;21.30;;;;;;5051883;28;20089;-63
2021/10/15 00:52:00;;;;;;;6.50;1.10;;;26.60;21.00;;;;;;5051510;28;20160;-62
2021/10/15 00:54:27;;;;;;;10.13;1.35;;;26.50;21.80;;;;;;5051573;28;20109;-62
2021/10/15 00:56:54;;;;;;;14.75;1.92;;;26.40;21.80;;;;;;5052093;28;20074;-62
2021/10/15 00:59:21;;;;;;;10.52;1.38;;;26.30;21.70;;;;;;5050505;28;20160;-62
2021/10/15 01:01:47;;;;;;;8.40;1.40;;;26.20;21.80;;;;;;5052117;28;20096;-62
2021/10/15 01:04:14;;;;;;;14.07;1.70;;;26.10;22.20;;;;;;5051657;28;20086;-63
2021/10/15 01:06:40;;;;;;;13.88;2.60;;;26.10;22.40;;;;;;5051798;28;20077;-64
2021/10/15 01:09:08;;;;;;;22.85;2.30;;;26.00;22.30;;;;;;5051542;28;20093;-63
2021/10/15 01:11:34;;;;;;;11.63;1.80;;;25.90;22.60;;;;;;5068576;28;20466;-65
2021/10/15 01:14:01;;;;;;;11.30;1.70;;;25.80;23.00;;;;;;5034775;28;20113;-65
2021/10/15 01:16:33;;;;;;;14.93;2.42;;;25.70;23.00;;;;;;5052581;28;20078;-63
2021/10/15 01:19:01;;;;;;;14.50;2.10;;;25.60;23.30;;;;;;5051020;28;20069;-62
2021/10/15 01:21:29;;;;;;;12.30;1.92;;;25.40;23.30;;;;;;5051163;28;20109;-66
2021/10/15 01:23:57;;;;;;;18.38;2.33;;;25.30;23.80;;;;;;5051548;28;20077;-63
2021/10/15 01:26:24;;;;;;;23.75;2.47;;;25.30;23.70;;;;;;5051545;28;20528;-62
2021/10/15 01:28:53;;;;;;;13.57;2.78;;;25.10;24.10;;;;;;5051043;28;20087;-65
2021/10/15 01:31:20;;;;;;;22.95;3.03;;;25.00;24.10;;;;;;5052666;28;20073;-62
2021/10/15 01:33:46;;;;;;;25.55;3.22;;;24.90;24.00;;;;;;5050936;28;20093;-65
2021/10/15 01:36:13;;;;;;;18.20;2.63;;;24.80;24.80;;;;;;5049551;28;20109;-63
2021/10/15 01:38:39;;;;;;;27.50;3.30;;;24.70;25.00;;;;;;5052168;28;20131;-64
2021/10/15 01:41:06;;;;;;;24.63;3.30;;;24.60;25.20;;;;;;5035061;28;20096;-64
2021/10/15 01:43:32;;;;;;;16.25;2.75;;;24.50;25.30;;;;;;5050548;28;20165;-63
2021/10/15 01:45:59;;;;;;;20.75;3.63;;;24.30;25.90;;;;;;5034140;28;20097;-66
2021/10/15 01:48:27;;;;;;;35.65;4.47;;;24.20;26.30;;;;;;5035029;28;20074;-62
2021/10/15 01:50:54;;;;;;;44.25;5.20;;;24.10;26.70;;;;;;5051230;28;20105;-62
2021/10/15 01:53:20;;;;;;;84.93;8.27;;;24.00;27.10;;;;;;5050998;28;20097;-62
2021/10/15 01:55:47;;;;;;;124.88;12.80;;;23.90;27.30;;;;;;5050566;28;20083;-62
2021/10/15 01:58:17;;;;;;;151.73;16.27;;;23.80;27.80;;;;;;5050936;28;20069;-62
2021/10/15 02:00:43;;;;;;;173.48;19.70;;;23.70;27.90;;;;;;5037310;28;20081;-63
2021/10/15 02:03:10;;;;;;;189.85;21.55;;;23.60;28.30;;;;;;5051866;28;20558;-61
2021/10/15 02:05:37;;;;;;;321.35;30.55;;;23.60;28.80;;;;;;5051901;28;20089;-64
2021/10/15 02:08:03;;;;;;;252.68;29.00;;;23.40;28.60;;;;;;5051856;28;20178;-63
2021/10/15 02:10:30;;;;;;;275.50;28.08;;;23.40;29.00;;;;;;5049328;28;20089;-61
2021/10/15 02:12:57;;;;;;;368.10;37.00;;;23.30;29.20;;;;;;5034163;28;20502;-62
2021/10/15 02:15:24;;;;;;;369.52;41.25;;;23.30;28.80;;;;;;5050656;28;20095;-63
2021/10/15 02:17:51;;;;;;;356.13;37.50;;;23.20;29.20;;;;;;5034208;28;20093;-62
2021/10/15 02:20:18;;;;;;;313.42;31.95;;;23.10;28.90;;;;;;5050289;28;20146;-62
2021/10/15 02:22:48;;;;;;;226.70;23.85;;;23.10;28.70;;;;;;5051207;28;20092;-62
2021/10/15 02:25:17;;;;;;;183.27;22.15;;;23.10;28.70;;;;;;5050321;28;20084;-61
2021/10/15 02:27:44;;;;;;;192.50;19.95;;;23.00;29.30;;;;;;5048526;28;20184;-62
2021/10/15 02:30:16;;;;;;;169.70;19.15;;;23.00;29.40;;;;;;5050015;28;20069;-63
2021/10/15 02:32:44;;;;;;;180.57;19.52;;;22.90;29.70;;;;;;5048401;28;20621;-64
2021/10/15 02:35:14;;;;;;;163.98;17.13;;;22.80;29.70;;;;;;5031397;28;20105;-63
2021/10/15 02:37:40;;;;;;;150.60;18.35;;;22.70;30.30;;;;;;5050391;28;20490;-63
2021/10/15 02:40:08;;;;;;;133.73;17.45;;;23.20;30.80;;;;;;5049671;28;20104;-63
2021/10/15 02:42:35;;;;;;;104.93;14.30;;;22.60;30.30;;;;;;5048618;28;20558;-62
2021/10/15 02:45:03;;;;;;;87.00;14.32;;;22.60;30.30;;;;;;5047469;28;20077;-63
2021/10/15 02:47:29;;;;;;;81.90;12.95;;;22.50;30.20;;;;;;5048408;28;20069;-62
2021/10/15 02:49:56;;;;;;;90.88;12.98;;;22.50;30.20;;;;;;5049702;28;20073;-63
2021/10/15 02:52:23;;;;;;;102.68;12.57;;;22.40;30.40;;;;;;5049440;28;20513;-62
2021/10/15 02:54:49;;;;;;;68.25;10.93;;;22.40;30.80;;;;;;5050232;28;20077;-63
2021/10/15 02:57:16;;;;;;;68.80;10.50;;;22.40;31.00;;;;;;5049021;28;20438;-64
2021/10/15 02:59:43;;;;;;;63.97;9.48;;;22.40;31.60;;;;;;5050572;28;20149;-65
2021/10/15 03:02:09;;;;;;;62.58;9.05;;;22.30;31.90;;;;;;5050691;28;20164;-63
2021/10/15 03:04:36;;;;;;;57.67;9.75;;;22.20;31.70;;;;;;5049457;28;20105;-63
2021/10/15 03:07:02;;;;;;;85.97;15.07;;;22.20;31.50;;;;;;5032616;28;20081;-64
2021/10/15 03:09:29;;;;;;;59.80;14.07;;;22.40;50.00;;;;;;5048830;28;20097;-62
2021/10/15 03:11:55;;;;;;;68.28;12.65;;;22.10;31.60;;;;;;5049998;28;20086;-63
2021/10/15 03:14:22;;;;;;;54.47;11.55;;;22.00;31.50;;;;;;5048394;28;20180;-63
2021/10/15 03:16:49;;;;;;;46.72;10.77;;;22.00;32.70;;;;;;5051078;28;20095;-63
2021/10/15 03:19:15;;;;;;;39.38;9.10;;;22.00;32.80;;;;;;5049502;28;20172;-63
2021/10/15 03:21:42;;;;;;;47.28;9.90;;;22.00;32.70;;;;;;5048981;28;20080;-63
2021/10/15 03:24:08;;;;;;;45.03;9.60;;;22.00;32.70;;;;;;5048302;28;20144;-63
2021/10/15 03:26:35;;;;;;;47.63;10.27;;;22.00;33.30;;;;;;5049416;28;20443;-63
2021/10/15 03:29:01;;;;;;;36.13;9.85;;;21.90;32.80;;;;;;5049823;28;20092;-63
2021/10/15 03:31:27;;;;;;;42.20;10.27;;;21.90;32.60;;;;;;5050839;28;20055;-62
2021/10/15 03:33:53;;;;;;;;;;;21.90;33.60;;;;;;5033607;28;20096;-64
2021/10/15 03:36:20;;;;;;;38.22;9.05;;;21.80;34.30;;;;;;5050276;28;19981;-63
2021/10/15 03:38:46;;;;;;;50.72;9.73;;;21.80;33.70;;;;;;5049617;28;20566;-63
2021/10/15 03:41:12;;;;;;;56.40;10.02;;;21.80;33.30;;;;;;5049565;28;20554;-64
2021/10/15 03:43:39;;;;;;;40.10;8.95;;;21.80;33.50;;;;;;5049394;28;20077;-64
2021/10/15 03:46:07;;;;;;;45.97;8.82;;;21.80;33.60;;;;;;5038708;28;20163;-64
2021/10/15 03:48:34;;;;;;;50.08;9.20;;;21.70;34.70;;;;;;5049436;28;20174;-62
2021/10/15 03:51:00;;;;;;;37.88;10.07;;;21.60;34.40;;;;;;5049049;28;20069;-64
2021/10/15 03:53:26;;;;;;;56.53;10.70;;;21.20;58.10;;;;;;5049860;28;20086;-63
2021/10/15 03:55:53;;;;;;;48.55;9.70;;;21.50;34.80;;;;;;5049455;28;20072;-65
2021/10/15 03:58:19;;;;;;;38.42;8.60;;;21.50;34.60;;;;;;5050589;28;20082;-64
2021/10/15 04:00:45;;;;;;;50.90;10.02;;;21.60;46.80;;;;;;5049274;28;20116;-62
2021/10/15 04:03:11;;;;;;;;;;;21.50;35.10;;;;;;5048935;28;20153;-64
2021/10/15 04:05:38;;;;;;;47.53;9.13;;;21.40;34.20;;;;;;5050089;28;19958;-63
2021/10/15 04:08:04;;;;;;;;;;;21.40;36.00;;;;;;5054084;28;20126;-62
2021/10/15 04:10:30;;;;;;;47.38;9.25;;;21.30;34.80;;;;;;5050637;28;19971;-64
2021/10/15 04:12:57;;;;;;;51.25;9.90;;;21.30;34.50;;;;;;5049345;28;20176;-62
2021/10/15 04:15:23;;;;;;;58.10;10.00;;;21.30;34.30;;;;;;5048152;28;20076;-63
2021/10/15 04:17:49;;;;;;;48.15;9.85;;;21.30;34.50;;;;;;5049742;28;20069;-67
2021/10/15 04:20:15;;;;;;;;;;;21.30;35.50;;;;;;5049742;28;20101;-64
2021/10/15 04:22:42;;;;;;;52.75;9.60;;;21.20;35.40;;;;;;5048948;28;20027;-64
2021/10/15 04:25:08;;;;;;;;;;;21.10;35.10;;;;;;5050069;28;20551;-64
2021/10/15 04:27:34;;;;;;;50.72;9.25;;;21.10;35.10;;;;;;5048683;28;19957;-62
2021/10/15 04:30:01;;;;;;;43.13;10.23;;;21.10;35.20;;;;;;5049370;28;20093;-65
2021/10/15 04:32:29;;;;;;;58.25;10.65;;;21.10;36.60;;;;;;5049016;28;20173;-66
2021/10/15 04:34:56;;;;;;;48.53;12.30;;;21.00;36.60;;;;;;5048719;28;20108;-63
2021/10/15 04:37:22;;;;;;;71.50;16.10;;;21.00;36.00;;;;;;5048667;28;20193;-63
2021/10/15 04:39:49;;;;;;;64.40;14.90;;;21.00;36.10;;;;;;5048886;28;20157;-63
2021/10/15 04:42:15;;;;;;;64.40;16.73;;;20.90;36.30;;;;;;5059810;28;20101;-64
2021/10/15 04:44:42;;;;;;;77.20;20.08;;;20.90;36.40;;;;;;5048175;28;20089;-64
2021/10/15 04:47:08;;;;;;;;;;;20.90;37.00;;;;;;5049106;28;20098;-64
2021/10/15 04:49:34;;;;;;;67.57;17.45;;;20.80;37.20;;;;;;5049782;28;19957;-63
2021/10/15 04:52:00;;;;;;;;;;;20.80;36.80;;;;;;5048959;28;20162;-64
2021/10/15 04:54:26;;;;;;;72.45;15.52;;;20.70;36.50;;;;;;5049203;28;20076;-65
2021/10/15 04:56:52;;;;;;;;;;;20.70;36.60;;;;;;5048830;28;20092;-62
2021/10/15 04:59:19;;;;;;;51.55;14.95;;;20.70;36.60;;;;;;5048760;28;19957;-63
2021/10/15 05:01:45;;;;;;;;;;;20.70;36.40;;;;;;5050365;28;20085;-64
2021/10/15 05:04:13;;;;;;;56.92;15.15;;;20.60;36.90;;;;;;5048307;28;20342;-63
2021/10/15 05:06:42;;;;;;;85.80;17.02;;;20.60;37.20;;;;;;5050176;28;20092;-61
2021/10/15 05:11:46;;;;;;;82.07;17.17;;;20.70;37.70;;;;;;5047422;28;20504;-69
2021/10/15 05:14:13;;;;;;;68.05;16.80;;;20.60;37.00;;;;;;5048708;28;20143;-65
2021/10/15 05:16:39;;;;;;;66.07;17.25;;;20.50;37.10;;;;;;5048138;28;20069;-62
2021/10/15 05:19:05;;;;;;;81.65;17.23;;;20.40;37.10;;;;;;5048094;28;20163;-64
2021/10/15 05:21:33;;;;;;;57.97;15.40;;;20.50;38.20;;;;;;5051337;28;20074;-66
2021/10/15 05:23:59;;;;;;;54.45;15.43;;;20.50;37.70;;;;;;5051601;28;20069;-64
2021/10/15 05:26:25;;;;;;;;;;;20.50;37.50;;;;;;5050419;28;20081;-62
2021/10/15 05:28:51;;;;;;;66.03;15.98;;;20.40;36.90;;;;;;5035512;28;20050;-69
2021/10/15 05:31:17;;;;;;;;;;;20.40;36.40;;;;;;5051789;28;20074;-63
2021/10/15 05:33:43;;;;;;;67.45;15.65;;;20.40;36.90;;;;;;5034625;28;19962;-63
2021/10/15 05:36:09;;;;;;;;;;;20.40;37.10;;;;;;5053058;28;20200;-64
2021/10/15 05:38:36;;;;;;;57.30;14.93;;;20.40;37.20;;;;;;5051588;28;20055;-67
2021/10/15 05:41:02;;;;;;;;;;;20.40;37.20;;;;;;5051709;28;20076;-65
2021/10/15 05:43:28;;;;;;;59.42;15.57;;;20.40;37.50;;;;;;5034512;28;19957;-65
2021/10/15 05:45:55;;;;;;;54.78;15.43;;;20.40;37.80;;;;;;5050904;28;20586;-66
2021/10/15 05:48:21;;;;;;;;;;;20.30;37.10;;;;;;5051900;28;20443;-65
2021/10/15 05:50:47;;;;;;;57.60;16.42;;;20.20;37.20;;;;;;5050810;28;20489;-65
2021/10/15 05:53:17;;;;;;;;;;;20.20;37.50;;;;;;5052046;28;20437;-63
2021/10/15 06:00:57;;;;;;;83.55;17.60;;;20.10;37.50;;;;;;5036938;28;20071;-65
2021/10/15 06:03:24;;;;;;;;;;;20.10;37.80;;;;;;5034878;28;20088;-66
2021/10/15 06:16:35;;;;;;;66.85;15.38;;;20.00;37.20;;;;;;5052271;28;20459;-67
2021/10/15 06:19:06;;;;;;;50.55;13.10;;;20.00;37.20;;;;;;5050717;28;20219;-66
2021/10/15 06:21:33;;;;;;;58.70;12.88;;;20.00;36.40;;;;;;5050583;28;20455;-64
2021/10/15 06:24:00;;;;;;;45.63;11.73;;;19.90;36.70;;;;;;5056401;28;20526;-65
2021/10/15 06:26:26;;;;;;;48.20;12.20;;;20.00;36.50;;;;;;5049221;28;20144;-63
2021/10/15 06:28:53;;;;;;;47.28;11.75;;;20.00;36.00;;;;;;5051158;28;20111;-62
2021/10/15 06:31:19;;;;;;;48.42;9.82;;;20.00;35.70;;;;;;5049089;28;20073;-64
2021/10/15 06:33:45;;;;;;;;;;;20.00;35.00;;;;;;5050354;28;20083;-65
2021/10/15 06:36:12;;;;;;;43.53;8.75;;;20.00;35.00;;;;;;5051631;28;20126;-66
2021/10/15 06:38:39;;;;;;;54.10;9.40;;;20.00;34.80;;;;;;5050098;28;20080;-67
2021/10/15 06:41:05;;;;;;;28.70;6.80;;;19.90;35.80;;;;;;5050844;28;20096;-65
2021/10/15 06:43:31;;;;;;;;;;;19.90;34.90;;;;;;5034054;28;20121;-63
2021/10/15 06:45:58;;;;;;;37.00;7.28;;;19.80;34.70;;;;;;5049691;28;20413;-67
2021/10/15 06:48:24;;;;;;;;;;;19.70;35.00;;;;;;5051429;28;20168;-64
2021/10/15 06:50:50;;;;;;;31.65;6.38;;;19.70;35.50;;;;;;5050405;28;19961;-68
2021/10/15 06:53:17;;;;;;;30.20;5.75;;;19.70;35.80;;;;;;5050186;28;20167;-64
2021/10/15 06:55:43;;;;;;;;;;;19.70;35.70;;;;;;5050541;28;20092;-64
2021/10/15 06:58:09;;;;;;;32.55;4.88;;;19.70;35.50;;;;;;5050054;28;19971;-65
2021/10/15 07:00:35;;;;;;;;;;;19.60;35.00;;;;;;5049620;28;20101;-62
2021/10/15 07:03:01;;;;;;;33.78;4.70;;;19.60;34.70;;;;;;5049600;28;19961;-63
2021/10/15 07:05:28;;;;;;;;;;;19.50;34.80;;;;;;5050112;28;20498;-62
2021/10/15 07:07:55;;;;;;;26.15;4.88;;;19.50;35.00;;;;;;5051172;28;20064;-65
2021/10/15 07:10:22;;;;;;;27.55;4.88;;;19.50;34.70;;;;;;5050880;28;20070;-64
2021/10/15 07:12:48;;;;;;;25.48;4.82;;;19.60;34.50;;;;;;5049379;28;20215;-64
2021/10/15 07:15:15;;;;;;;;;;;19.60;35.10;;;;;;5049726;28;20463;-62
2021/10/15 07:17:42;;;;;;;20.88;3.85;;;19.50;35.00;;;;;;5049455;28;20431;-62
2021/10/15 07:20:09;;;;;;;26.60;3.78;;;19.50;35.10;;;;;;5032149;28;20102;-63
2021/10/15 07:22:36;;;;;;;27.80;4.43;;;19.50;35.20;;;;;;5016443;28;20074;-67
2021/10/15 07:25:04;;;;;;;22.98;3.55;;;19.40;35.30;;;;;;5049164;28;20112;-64
2021/10/15 07:27:31;;;;;;;20.42;3.60;;;19.40;35.90;;;;;;5032130;28;20113;-64
2021/10/15 07:29:57;;;;;;;29.75;4.25;;;19.40;35.30;;;;;;5049240;28;20069;-63
2021/10/15 07:32:23;;;;;;;;;;;19.30;35.50;;;;;;5049745;28;20078;-64
2021/10/15 07:34:50;;;;;;;19.35;2.85;;;19.30;35.60;;;;;;5048984;28;20027;-63
2021/10/15 07:37:15;;;;;;;;;;;19.30;35.30;;;;;;5050110;28;20526;-64
2021/10/15 07:39:42;;;;;;;10.32;2.97;;;19.20;35.10;;;;;;5049020;28;19958;-66
2021/10/15 07:42:08;;;;;;;;;;;19.20;35.00;;;;;;5049676;28;20066;-62
2021/10/15 07:44:34;;;;;;;23.98;3.33;;;19.20;34.90;;;;;;5048294;28;19957;-63
2021/10/15 07:47:01;;;;;;;24.60;3.15;;;19.30;35.50;;;;;;5048612;28;20085;-63
2021/10/15 07:49:27;;;;;;;;;;;19.20;35.90;;;;;;5049971;28;20123;-57
2021/10/15 07:51:53;;;;;;;21.50;4.00;;;19.20;35.70;;;;;;5049020;28;19973;-65
2021/10/15 07:54:20;;;;;;;19.50;3.50;;;19.20;35.60;;;;;;5048318;28;20094;-63
2021/10/15 07:56:46;;;;;;;18.50;3.47;;;19.20;34.60;;;;;;5050539;28;20123;-63
2021/10/15 07:59:12;;;;;;;23.92;3.47;;;19.10;34.50;;;;;;5048831;28;20073;-64
2021/10/15 08:01:38;;;;;;;;;;;19.10;34.40;;;;;;5050307;28;20091;-66
2021/10/15 08:04:05;;;;;;;17.00;2.80;;;19.10;33.80;;;;;;5049446;28;20435;-63
2021/10/15 08:06:32;;;;;;;9.23;2.80;;;19.00;34.30;;;;;;5044071;28;20404;-63
2021/10/15 08:08:58;;;;;;;21.88;3.95;;;19.00;35.20;;;;;;5048397;28;20090;-63
2021/10/15 08:11:24;;;;;;;;;;;18.90;35.00;;;;;;5050884;28;20097;-62
2021/10/15 08:13:51;;;;;;;24.58;4.05;;;18.90;34.40;;;;;;5048072;28;20310;-62
2021/10/15 08:16:18;;;;;;;;;;;18.90;33.90;;;;;;5048797;28;20151;-64
2021/10/15 08:18:46;;;;;;;26.88;4.57;;;18.90;34.60;;;;;;5048594;28;20400;-64
2021/10/15 08:21:12;;;;;;;20.15;4.85;;;18.80;34.50;;;;;;5048849;28;20074;-64
2021/10/15 08:23:40;;;;;;;24.35;5.25;;;18.80;34.10;;;;;;5048955;28;20082;-67
2021/10/15 08:26:06;;;;;;;24.95;5.47;;;18.80;34.00;;;;;;5049190;28;20066;-63
2021/10/15 08:28:34;;;;;;;23.13;5.80;;;18.70;33.10;;;;;;5047237;28;20101;-65
2021/10/15 08:31:02;;;;;;;26.40;5.88;;;18.80;32.70;;;;;;5048449;28;20486;-58
2021/10/15 08:33:28;;;;;;;25.60;6.55;;;18.70;32.80;;;;;;5047287;28;20311;-64
2021/10/15 08:35:55;;;;;;;42.53;7.20;;;18.70;32.30;;;;;;5047508;28;20158;-62
2021/10/15 08:38:21;;;;;;;32.63;7.10;;;18.70;31.90;;;;;;5048342;28;20101;-63
2021/10/15 08:40:48;;;;;;;;;;;18.70;31.20;;;;;;5049897;28;20066;-63
2021/10/15 08:43:16;;;;;;;28.75;6.38;;;18.60;30.50;;;;;;5048013;28;20423;-62
2021/10/15 08:45:43;;;;;;;34.70;7.50;;;18.60;30.30;;;;;;5047656;28;20134;-64
2021/10/15 08:48:09;;;;;;;24.17;7.15;;;18.60;30.10;;;;;;5048257;28;20073;-62
2021/10/15 08:50:36;;;;;;;25.92;6.18;;;18.60;29.50;;;;;;5051954;28;20081;-63
2021/10/15 08:53:03;;;;;;;32.53;7.03;;;18.60;29.50;;;;;;5048834;28;20087;-66
2021/10/15 08:55:30;;;;;;;21.75;5.53;;;18.50;28.90;;;;;;5032974;28;20086;-65
2021/10/15 08:57:59;;;;;;;13.57;4.60;;;18.50;28.70;;;;;;5051462;28;20124;-64
2021/10/15 09:00:31;;;;;;;14.15;3.67;;;18.50;28.70;;;;;;5052030;28;20074;-66
2021/10/15 09:03:17;;;;;;;28.35;4.13;;;18.50;28.40;;;;;;5051483;28;20116;-64
2021/10/15 09:06:00;;;;;;;16.10;4.00;;;18.40;28.10;;;;;;5051799;28;20073;-65
2021/10/15 09:09:00;;;;;;;14.55;3.25;;;18.40;28.30;;;;;;5052069;28;20558;-64
2021/10/15 09:11:45;;;;;;;13.63;2.53;;;18.40;27.90;;;;;;5067599;28;20212;-63
2021/10/15 09:14:19;;;;;;;15.82;2.83;;;18.40;28.20;;;;;;5051811;28;20081;-63
2021/10/15 09:17:15;;;;;;;14.77;2.75;;;18.40;28.80;;;;;;5051872;28;21006;-64
2021/10/15 09:19:50;;;;;;;10.65;2.38;;;18.30;28.20;;;;;;5052917;28;20087;-64
2021/10/15 09:22:25;;;;;;;15.75;1.98;;;18.30;28.10;;;;;;5051760;28;20069;-63
2021/10/15 09:25:11;;;;;;;15.60;2.30;;;18.30;28.30;;;;;;5051529;28;20126;-64
2021/10/15 09:27:48;;;;;;;8.23;2.00;;;18.30;28.50;;;;;;5035474;28;20116;-65
2021/10/15 09:30:20;;;;;;;8.00;1.80;;;18.30;28.60;;;;;;5051860;28;20160;-65
2021/10/15 09:32:48;;;;;;;11.45;2.22;;;18.40;28.10;;;;;;5051354;28;20483;-62
2021/10/15 09:35:24;;;;;;;11.23;1.73;;;18.40;28.50;;;;;;5051272;28;20601;-64
2021/10/15 09:38:01;;;;;;;10.00;2.50;;;18.40;28.70;;;;;;5034295;28;20073;-63
2021/10/15 09:40:31;;;;;;;6.65;2.90;;;18.30;29.20;;;;;;5050751;28;20156;-62
2021/10/15 09:43:02;;;;;;;22.00;4.93;;;18.20;28.90;;;;;;5034269;28;20081;-63
2021/10/15 09:45:40;;;;;;;17.05;4.78;;;18.20;28.60;;;;;;5051215;28;20143;-64
2021/10/15 09:48:24;;;;;;;20.42;5.22;;;18.00;28.10;;;;;;5051062;28;20083;-63
2021/10/15 09:51:17;;;;;;;20.60;4.32;;;17.90;28.10;;;;;;5051748;28;20069;-65
2021/10/15 09:54:11;;;;;;;27.45;5.63;;;17.90;28.20;;;;;;5051686;28;20135;-62
2021/10/15 09:56:49;;;;;;;13.05;4.45;;;17.90;28.20;;;;;;5043937;28;20154;-63
2021/10/15 09:59:16;;;;;;;16.45;4.32;;;17.80;28.00;;;;;;5051693;28;20122;-63
2021/10/15 10:01:43;;;;;;;14.75;4.00;;;17.90;27.80;;;;;;5051573;28;20549;-63
2021/10/15 10:04:10;;;;;;;18.30;3.67;;;17.90;27.20;;;;;;5051688;28;20074;-63
2021/10/15 10:06:37;;;;;;;21.65;3.70;;;18.00;27.70;;;;;;5051332;28;20554;-63
2021/10/15 10:09:06;;;;;;;16.00;3.58;;;18.00;27.80;;;;;;5054007;28;20523;-63
2021/10/15 10:11:33;;;;;;;13.57;4.10;;;18.00;27.70;;;;;;5053559;28;20074;-64
2021/10/15 10:13:59;;;;;;;17.25;4.20;;;18.00;28.00;;;;;;5051823;28;20105;-64
2021/10/15 10:16:29;;;;;;;30.90;5.38;;;17.90;28.30;;;;;;5051447;28;20077;-62
2021/10/15 10:19:02;;;;;;;30.83;6.15;;;17.70;28.50;;;;;;5051013;28;20077;-65
2021/10/15 10:21:35;;;;;;;27.20;6.05;;;17.70;28.40;;;;;;5034881;28;20076;-63
2021/10/15 10:24:21;;;;;;;35.22;7.03;;;17.70;28.70;;;;;;5051094;28;20185;-63
2021/10/15 10:26:50;;;;;;;28.98;7.18;;;17.70;28.50;;;;;;5034832;28;20558;-64
2021/10/15 10:29:20;;;;;;;24.83;7.15;;;17.70;28.70;;;;;;5051645;28;20081;-65
2021/10/15 10:31:47;;;;;;;30.63;8.00;;;17.70;28.70;;;;;;5051802;28;20081;-63
2021/10/15 10:34:27;;;;;;;29.42;8.63;;;17.60;28.60;;;;;;5051990;28;20086;-62
2021/10/15 10:37:22;;;;;;;39.33;8.38;;;17.60;28.80;;;;;;5052494;28;20510;-63
2021/10/15 10:40:08;;;;;;;28.00;8.93;;;17.60;29.00;;;;;;5012471;28;20530;-65
2021/10/15 10:42:55;;;;;;;35.20;9.40;;;17.50;29.10;;;;;;5013112;28;20839;-64
2021/10/15 10:45:21;;;;;;;;;;;17.50;29.20;;;;;;5029793;28;20645;-64
2021/10/15 10:48:08;;;;;;;34.42;9.38;;;17.40;29.50;;;;;;5011506;28;19977;-61
2021/10/15 10:50:34;;;;;;;32.10;9.05;;;17.50;29.70;;;;;;5029846;28;20090;-63
2021/10/15 10:53:07;;;;;;;25.38;8.52;;;17.50;29.90;;;;;;5013786;28;20090;-63
2021/10/15 10:55:54;;;;;;;28.63;8.52;;;17.40;29.70;;;;;;5029718;28;20081;-65
2021/10/15 10:58:37;;;;;;;25.15;7.57;;;17.50;29.60;;;;;;5028544;28;20131;-62
2021/10/15 11:01:26;;;;;;;31.27;7.75;;;17.50;29.50;;;;;;5012726;28;20093;-63
2021/10/15 11:03:53;;;;;;;29.42;6.78;;;17.50;29.90;;;;;;5012494;28;20121;-62
2021/10/15 11:06:19;;;;;;;28.92;6.38;;;17.60;28.40;;;;;;5013260;28;20446;-64
2021/10/15 11:08:46;;;;;;;19.90;5.30;;;17.60;28.10;;;;;;4997064;28;20100;-62
2021/10/15 11:11:26;;;;;;;28.77;5.65;;;17.60;27.70;;;;;;5013592;28;20082;-62
2021/10/15 11:13:52;;;;;;;21.25;4.95;;;17.70;27.30;;;;;;5013107;28;20090;-61
2021/10/15 11:16:24;;;;;;;20.83;5.18;;;17.70;27.00;;;;;;5046654;28;20443;-65
2021/10/15 11:18:51;;;;;;;24.55;4.45;;;17.70;27.40;;;;;;5032974;28;20223;-65
2021/10/15 11:21:20;;;;;;;20.95;5.30;;;17.80;27.30;;;;;;5033746;28;20103;-63
2021/10/15 11:23:48;;;;;;;12.13;5.03;;;17.70;27.80;;;;;;5053701;28;20086;-64
2021/10/15 11:26:15;;;;;;;21.85;4.95;;;17.80;28.00;;;;;;5050240;28;20081;-62
2021/10/15 11:28:41;;;;;;;28.65;5.28;;;17.70;28.10;;;;;;5050130;28;20081;-63
2021/10/15 11:31:12;;;;;;;22.80;4.60;;;17.70;28.30;;;;;;5050863;28;20156;-64
2021/10/15 11:33:39;;;;;;;18.30;4.50;;;17.70;28.70;;;;;;5049879;28;20539;-64
2021/10/15 11:36:06;;;;;;;16.80;4.30;;;17.70;28.80;;;;;;5050177;28;20143;-62
2021/10/15 11:38:33;;;;;;;21.98;4.43;;;17.70;28.60;;;;;;5049328;28;20077;-62
2021/10/15 11:41:09;;;;;;;18.17;3.35;;;17.60;28.30;;;;;;5033604;28;20143;-64
2021/10/15 11:43:41;;;;;;;12.32;3.40;;;17.60;28.30;;;;;;5049751;28;20655;-62
2021/10/15 11:46:08;;;;;;;8.10;2.95;;;17.70;28.30;;;;;;5049260;28;20100;-63
2021/10/15 11:48:41;;;;;;;7.70;2.40;;;17.70;28.40;;;;;;5048745;28;20073;-60
2021/10/15 11:51:23;;;;;;;10.63;2.33;;;17.80;28.50;;;;;;5033541;28;20494;-61
2021/10/15 11:54:00;;;;;;;9.30;2.35;;;17.80;28.80;;;;;;5032674;28;20085;-62
2021/10/15 11:56:30;;;;;;;11.60;2.42;;;17.80;28.90;;;;;;5048956;28;20159;-62
2021/10/15 11:58:58;;;;;;;12.25;2.63;;;17.80;28.90;;;;;;5048677;28;20116;-61
2021/10/15 12:01:31;;;;;;;8.95;2.15;;;17.80;28.90;;;;;;5049363;28;20104;-61
2021/10/15 12:04:01;;;;;;;13.13;1.75;;;17.80;28.80;;;;;;5048751;28;20416;-63
2021/10/15 12:06:31;;;;;;;12.93;2.35;;;17.90;29.00;;;;;;5046959;28;20484;-62
2021/10/15 12:09:08;;;;;;;5.75;1.77;;;17.90;28.60;;;;;;5049231;28;20130;-63
2021/10/15 12:11:36;;;;;;;12.52;2.10;;;18.00;28.60;;;;;;5049227;28;20081;-65
2021/10/15 12:14:05;;;;;;;17.00;2.15;;;18.00;28.40;;;;;;5048263;28;20626;-63
2021/10/15 12:16:34;;;;;;;16.67;2.40;;;18.10;28.10;;;;;;5048440;28;20168;-64
2021/10/15 12:19:12;;;;;;;12.90;1.85;;;18.20;28.10;;;;;;5048618;28;20215;-65
2021/10/15 12:21:45;;;;;;;13.98;2.28;;;18.20;28.00;;;;;;5047591;28;20109;-64
2021/10/15 12:24:23;;;;;;;10.35;2.10;;;18.30;28.30;;;;;;5049608;28;20069;-63
2021/10/15 12:27:15;;;;;;;13.00;2.13;;;18.30;28.00;;;;;;5047630;28;20078;-64
2021/10/15 12:29:44;;;;;;;11.52;1.40;;;18.30;28.70;;;;;;5047851;28;20112;-64
2021/10/15 12:32:20;;;;;;;11.90;1.90;;;18.20;28.90;;;;;;5048166;28;20126;-63
2021/10/15 12:34:59;;;;;;;10.05;1.90;;;18.20;28.60;;;;;;5047891;28;20648;-64
2021/10/15 12:37:34;;;;;;;14.73;2.70;;;18.10;29.10;;;;;;5049344;28;20127;-65
2021/10/15 12:40:17;;;;;;;15.00;2.45;;;18.10;28.90;;;;;;5047046;28;20085;-65
2021/10/15 12:42:49;;;;;;;16.58;2.00;;;18.10;28.10;;;;;;5048523;28;20458;-63
2021/10/15 12:45:16;;;;;;;18.70;2.10;;;18.10;28.40;;;;;;5031410;28;20085;-65
2021/10/15 12:48:00;;;;;;;5.13;1.40;;;18.10;28.20;;;;;;5047962;28;20544;-63
2021/10/15 12:50:28;;;;;;;12.52;2.25;;;18.20;28.00;;;;;;5048271;28;20081;-63
2021/10/15 12:52:55;;;;;;;11.68;2.10;;;18.20;28.00;;;;;;5030798;28;20443;-63
2021/10/15 12:55:28;;;;;;;11.25;2.20;;;18.20;27.90;;;;;;5030987;28;20081;-61
2021/10/15 12:58:06;;;;;;;17.08;2.88;;;18.20;28.10;;;;;;5048031;28;20147;-63
2021/10/15 13:00:47;;;;;;;13.93;2.85;;;18.20;28.10;;;;;;5047510;28;20078;-62
2021/10/15 13:03:14;;;;;;;27.58;2.10;;;18.20;28.60;;;;;;5047487;28;20170;-62
2021/10/15 13:05:41;;;;;;;11.98;2.63;;;18.20;28.00;;;;;;5048280;28;20076;-62
2021/10/15 13:08:07;;;;;;;10.38;2.08;;;18.20;27.90;;;;;;5048293;28;20975;-62
2021/10/15 13:10:33;;;;;;;;;;;18.20;28.10;;;;;;5032646;28;20156;-62